Time;durP1;ratioP1;P1;durP2;ratioP2;P2;SDS_P1;SDS_P2;PMS_P1;PMS_P2;Temp;Humidity;BMP_temperature;BMP_pressure;BME280_temperature;BME280_humidity;BME280_pressure;Samples;Min_cycle;Max_cycle;Signal;HPM_P1;HPM_P2
2022/08/04 00:00:51;;;;;;;11.30;4.23;;;;;;;;;;5051169;28;20262;-56
2022/08/04 00:03:19;;;;;;;10.03;3.83;;;;;;;;;;5051253;28;20208;-55
2022/08/04 00:05:54;;;;;;;13.97;4.13;;;;;;;;;;5053602;28;20227;-55
2022/08/04 00:08:22;;;;;;;9.00;3.80;;;;;;;;;;5054786;28;20195;-55
2022/08/04 00:10:48;;;;;;;8.43;4.17;;;;;;;;;;5054881;28;20307;-55
2022/08/04 00:13:16;;;;;;;6.10;4.10;;;;;;;;;;5054705;28;20196;-55
2022/08/04 00:15:42;;;;;;;11.97;4.03;;;;;;;;;;5054713;28;20634;-56
2022/08/04 00:18:13;;;;;;;11.07;3.77;;;;;;;;;;5054512;28;20200;-55
2022/08/04 00:20:41;;;;;;;11.37;3.73;;;;;;;;;;5054499;28;20235;-55
2022/08/04 00:23:08;;;;;;;7.77;3.73;;;;;;;;;;5054399;28;20196;-56
2022/08/04 00:25:34;;;;;;;7.07;3.80;;;;;;;;;;5054579;28;20197;-55
2022/08/04 00:28:01;;;;;;;10.43;4.50;;;;;;;;;;5054456;28;20215;-55
2022/08/04 00:30:27;;;;;;;10.87;4.70;;;;;;;;;;5054306;28;20553;-55
2022/08/04 00:32:54;;;;;;;11.43;4.53;;;;;;;;;;5054186;28;20692;-56
2022/08/04 00:35:22;;;;;;;11.10;4.97;;;;;;;;;;5054374;28;20200;-55
2022/08/04 00:37:48;;;;;;;10.37;4.07;;;;;;;;;;5054173;28;20701;-55
2022/08/04 00:40:22;;;;;;;9.23;4.03;;;;;;;;;;5054349;28;20239;-55
2022/08/04 00:42:51;;;;;;;7.00;4.20;;;;;;;;;;5054225;28;20630;-55
2022/08/04 00:45:35;;;;;;;10.53;4.10;;;;;;;;;;5054014;28;20247;-55
2022/08/04 00:48:07;;;;;;;10.13;4.20;;;;;;;;;;5054150;28;20181;-55
2022/08/04 00:50:41;;;;;;;10.57;4.37;;;;;;;;;;5054088;28;20196;-55
2022/08/04 00:53:08;;;;;;;9.47;4.30;;;;;;;;;;5053796;28;20561;-55
2022/08/04 00:55:40;;;;;;;10.73;4.60;;;;;;;;;;5052687;28;20421;-55
2022/08/04 00:58:13;;;;;;;9.27;4.20;;;;;;;;;;5053796;28;20635;-55
2022/08/04 01:00:43;;;;;;;9.60;4.90;;;;;;;;;;5053807;28;20228;-55
2022/08/04 01:03:14;;;;;;;11.03;4.57;;;;;;;;;;5053726;28;20659;-55
2022/08/04 01:05:48;;;;;;;8.83;4.50;;;;;;;;;;5053800;28;20192;-56
2022/08/04 01:08:34;;;;;;;10.43;4.63;;;;;;;;;;5053650;28;20212;-55
2022/08/04 01:11:04;;;;;;;6.90;4.13;;;;;;;;;;5047646;28;20208;-55
2022/08/04 01:13:44;;;;;;;9.63;4.53;;;;;;;;;;5053670;28;20697;-56
2022/08/04 01:16:15;;;;;;;9.33;4.73;;;;;;;;;;5052821;28;20211;-55
2022/08/04 01:18:45;;;;;;;8.90;4.50;;;;;;;;;;5053400;28;20663;-55
2022/08/04 01:21:23;;;;;;;9.67;4.30;;;;;;;;;;5053343;28;20201;-55
2022/08/04 01:24:12;;;;;;;10.50;4.90;;;;;;;;;;5053305;28;20629;-55
2022/08/04 01:26:53;;;;;;;12.53;4.53;;;;;;;;;;5033149;28;20647;-55
2022/08/04 01:29:22;;;;;;;10.17;4.67;;;;;;;;;;5053208;28;20211;-55
2022/08/04 01:31:53;;;;;;;11.23;4.93;;;;;;;;;;5051991;28;20938;-55
2022/08/04 01:34:19;;;;;;;10.80;4.67;;;;;;;;;;5053270;28;20202;-55
2022/08/04 01:36:47;;;;;;;11.63;4.73;;;;;;;;;;5053168;28;20674;-55
2022/08/04 01:41:59;;;;;;;10.67;5.40;;;;;;;;;;5053184;28;20223;-55
2022/08/04 01:44:28;;;;;;;10.87;5.50;;;;;;;;;;5052858;28;20331;-56
2022/08/04 01:46:54;;;;;;;11.53;4.73;;;;;;;;;;5052956;28;20263;-55
2022/08/04 01:49:23;;;;;;;10.10;4.77;;;;;;;;;;5052921;28;20242;-55
2022/08/04 01:51:53;;;;;;;8.17;4.90;;;;;;;;;;5052719;28;20196;-55
2022/08/04 01:54:19;;;;;;;8.33;4.53;;;;;;;;;;5052887;28;20219;-55
2022/08/04 01:56:46;;;;;;;7.70;4.47;;;;;;;;;;5052897;28;20196;-55
2022/08/04 01:59:14;;;;;;;10.00;5.27;;;;;;;;;;5052591;28;20220;-55
2022/08/04 02:01:42;;;;;;;11.60;5.10;;;;;;;;;;5052707;28;20207;-55
2022/08/04 02:04:13;;;;;;;10.73;5.47;;;;;;;;;;5052576;28;20515;-55
2022/08/04 02:06:44;;;;;;;8.47;5.20;;;;;;;;;;5052638;28;20196;-55
2022/08/04 02:09:12;;;;;;;9.43;5.38;;;;;;;;;;5051261;28;20416;-55
2022/08/04 02:11:40;;;;;;;9.40;4.60;;;;;;;;;;5052551;28;20327;-55
2022/08/04 02:14:10;;;;;;;9.33;4.70;;;;;;;;;;5052312;28;20216;-55
2022/08/04 02:16:43;;;;;;;11.43;5.40;;;;;;;;;;5052369;28;20257;-55
2022/08/04 02:19:16;;;;;;;9.20;4.70;;;;;;;;;;5052216;28;20282;-55
2022/08/04 02:21:44;;;;;;;7.23;4.60;;;;;;;;;;5052285;28;20205;-55
2022/08/04 02:24:13;;;;;;;8.40;4.47;;;;;;;;;;5052134;28;20729;-55
2022/08/04 02:26:41;;;;;;;9.27;4.40;;;;;;;;;;5052243;28;20201;-55
2022/08/04 02:29:13;;;;;;;7.83;4.00;;;;;;;;;;5052086;28;20196;-55
2022/08/04 02:31:43;;;;;;;9.03;4.57;;;;;;;;;;5052224;28;20202;-55
2022/08/04 02:34:14;;;;;;;6.90;4.13;;;;;;;;;;5052052;28;20257;-55
2022/08/04 02:36:41;;;;;;;8.47;4.33;;;;;;;;;;5051974;28;20607;-55
2022/08/04 02:39:08;;;;;;;7.77;4.60;;;;;;;;;;5052073;28;20227;-55
2022/08/04 02:41:34;;;;;;;11.27;5.47;;;;;;;;;;5051999;28;20200;-56
2022/08/04 02:44:01;;;;;;;7.67;4.10;;;;;;;;;;5051819;28;20244;-55
2022/08/04 02:46:28;;;;;;;8.30;4.20;;;;;;;;;;5051950;28;20196;-55
2022/08/04 02:48:55;;;;;;;6.80;4.63;;;;;;;;;;5051709;28;20588;-55
2022/08/04 02:51:27;;;;;;;9.93;4.87;;;;;;;;;;5051936;28;20193;-55
2022/08/04 02:53:55;;;;;;;6.47;4.73;;;;;;;;;;5051755;28;20207;-55
2022/08/04 02:56:22;;;;;;;10.83;4.50;;;;;;;;;;5051816;28;20212;-55
2022/08/04 02:58:50;;;;;;;9.73;4.83;;;;;;;;;;5051692;28;20203;-55
2022/08/04 03:01:16;;;;;;;10.97;5.00;;;;;;;;;;5051867;28;20200;-55
2022/08/04 03:03:48;;;;;;;8.50;4.83;;;;;;;;;;5051819;28;20214;-55
2022/08/04 03:06:23;;;;;;;7.50;4.97;;;;;;;;;;5051752;28;20210;-55
2022/08/04 03:09:00;;;;;;;10.70;5.47;;;;;;;;;;5051583;28;20211;-55
2022/08/04 03:11:44;;;;;;;13.10;5.33;;;;;;;;;;5051704;28;20208;-55
2022/08/04 03:14:25;;;;;;;6.03;4.57;;;;;;;;;;5051500;28;20219;-55
2022/08/04 03:17:00;;;;;;;5.77;4.33;;;;;;;;;;5051442;28;20623;-55
2022/08/04 03:19:47;;;;;;;10.90;5.33;;;;;;;;;;5051388;28;20318;-55
2022/08/04 03:22:31;;;;;;;10.37;5.60;;;;;;;;;;5017879;28;20662;-55
2022/08/04 03:25:11;;;;;;;7.37;5.43;;;;;;;;;;5051468;28;20246;-55
2022/08/04 03:27:46;;;;;;;14.23;5.80;;;;;;;;;;5051502;28;20203;-55
2022/08/04 03:30:14;;;;;;;19.90;5.83;;;;;;;;;;5051406;28;20196;-55
2022/08/04 03:32:55;;;;;;;8.60;5.23;;;;;;;;;;5051572;28;20200;-55
2022/08/04 03:35:36;;;;;;;7.63;5.23;;;;;;;;;;5048381;28;20206;-55
2022/08/04 03:38:12;;;;;;;12.87;5.80;;;;;;;;;;5051355;28;20224;-55
2022/08/04 03:40:55;;;;;;;8.37;5.10;;;;;;;;;;5053713;28;20227;-55
2022/08/04 03:43:29;;;;;;;10.30;5.43;;;;;;;;;;5055127;28;21093;-55
2022/08/04 03:46:13;;;;;;;7.17;5.30;;;;;;;;;;5055106;28;20239;-55
2022/08/04 03:48:50;;;;;;;9.17;5.33;;;;;;;;;;5055261;28;20219;-55
2022/08/04 03:54:11;;;;;;;11.83;6.50;;;;;;;;;;5053889;28;20391;-55
2022/08/04 03:56:49;;;;;;;7.77;5.60;;;;;;;;;;5055090;28;20446;-55
2022/08/04 03:59:30;;;;;;;10.27;5.70;;;;;;;;;;5054956;28;20779;-55
2022/08/04 04:02:04;;;;;;;8.67;4.87;;;;;;;;;;5051772;28;20208;-53
2022/08/04 04:04:36;;;;;;;8.67;5.03;;;;;;;;;;5055077;28;20200;-53
2022/08/04 04:07:24;;;;;;;8.17;4.90;;;;;;;;;;5054795;28;20192;-53
2022/08/04 04:10:02;;;;;;;6.90;4.67;;;;;;;;;;5054731;28;20611;-53
2022/08/04 04:12:47;;;;;;;8.40;5.50;;;;;;;;;;5054900;28;20269;-53
2022/08/04 04:15:19;;;;;;;9.10;5.17;;;;;;;;;;5054733;28;20199;-53
2022/08/04 04:17:52;;;;;;;9.10;5.53;;;;;;;;;;5054892;28;20210;-53
2022/08/04 04:20:25;;;;;;;7.93;5.37;;;;;;;;;;5054681;28;20231;-53
2022/08/04 04:23:00;;;;;;;7.87;5.27;;;;;;;;;;5054474;28;20651;-53
2022/08/04 04:25:33;;;;;;;8.87;5.20;;;;;;;;;;5054547;28;20207;-53
2022/08/04 04:28:09;;;;;;;8.30;5.07;;;;;;;;;;5054539;28;20203;-55
2022/08/04 04:30:40;;;;;;;9.60;5.80;;;;;;;;;;5054507;28;20196;-56
2022/08/04 04:33:12;;;;;;;9.10;5.10;;;;;;;;;;5054343;28;20192;-54
2022/08/04 04:35:44;;;;;;;10.17;5.67;;;;;;;;;;5054370;28;20295;-53
2022/08/04 04:38:19;;;;;;;14.60;5.73;;;;;;;;;;5054127;28;20200;-53
2022/08/04 04:40:52;;;;;;;11.77;5.70;;;;;;;;;;5054280;28;20763;-56
2022/08/04 04:43:29;;;;;;;11.50;5.57;;;;;;;;;;5054152;28;20200;-56
2022/08/04 04:46:01;;;;;;;12.27;5.97;;;;;;;;;;5053974;28;20322;-54
2022/08/04 04:48:33;;;;;;;11.90;5.93;;;;;;;;;;5054201;28;20658;-56
2022/08/04 04:51:08;;;;;;;12.57;6.03;;;;;;;;;;5053220;28;20197;-53
2022/08/04 04:53:38;;;;;;;10.50;6.33;;;;;;;;;;5053866;28;20228;-53
2022/08/04 04:56:07;;;;;;;21.17;6.60;;;;;;;;;;5053968;28;20201;-53
2022/08/04 04:58:36;;;;;;;17.07;6.50;;;;;;;;;;5053872;28;20662;-53
2022/08/04 05:01:13;;;;;;;14.23;6.13;;;;;;;;;;5053750;28;20228;-54
2022/08/04 05:03:48;;;;;;;13.07;6.03;;;;;;;;;;5053838;28;20207;-53
2022/08/04 05:06:19;;;;;;;13.83;5.13;;;;;;;;;;5053856;28;20196;-53
2022/08/04 05:08:53;;;;;;;9.37;5.07;;;;;;;;;;5053895;28;20281;-53
2022/08/04 05:11:33;;;;;;;10.33;5.57;;;;;;;;;;5053771;28;20196;-53
2022/08/04 05:14:02;;;;;;;11.60;5.30;;;;;;;;;;5053710;28;20254;-53
2022/08/04 05:16:31;;;;;;;12.17;5.07;;;;;;;;;;5053701;28;20287;-54
2022/08/04 05:19:13;;;;;;;9.17;5.13;;;;;;;;;;5053526;28;20207;-54
2022/08/04 05:21:41;;;;;;;10.75;5.70;;;;;;;;;;5052235;28;20404;-54
2022/08/04 05:24:10;;;;;;;9.60;5.70;;;;;;;;;;5053395;28;20208;-54
2022/08/04 05:26:38;;;;;;;13.33;5.60;;;;;;;;;;5053422;28;20196;-54
2022/08/04 05:29:08;;;;;;;9.23;5.17;;;;;;;;;;5053146;28;20681;-54
2022/08/04 05:31:37;;;;;;;13.13;5.70;;;;;;;;;;5053305;28;20192;-54
2022/08/04 05:34:06;;;;;;;10.90;4.97;;;;;;;;;;5053213;28;20624;-54
2022/08/04 05:36:34;;;;;;;11.10;5.40;;;;;;;;;;5053278;28;20205;-54
2022/08/04 05:39:00;;;;;;;12.07;5.47;;;;;;;;;;5053210;28;20572;-54
2022/08/04 05:41:26;;;;;;;10.93;5.37;;;;;;;;;;5053129;28;20250;-54
2022/08/04 05:43:53;;;;;;;11.10;4.70;;;;;;;;;;5052766;28;20297;-54
2022/08/04 05:46:20;;;;;;;9.00;4.87;;;;;;;;;;5052940;28;20200;-54
2022/08/04 05:48:47;;;;;;;11.60;4.83;;;;;;;;;;5053087;28;20586;-54
2022/08/04 05:51:14;;;;;;;13.77;5.20;;;;;;;;;;5052795;28;20196;-54
2022/08/04 05:53:43;;;;;;;10.97;4.80;;;;;;;;;;5052960;28;20203;-54
2022/08/04 05:56:09;;;;;;;8.07;4.20;;;;;;;;;;5052730;28;20200;-55
2022/08/04 05:58:36;;;;;;;14.67;5.20;;;;;;;;;;5052797;28;20200;-55
2022/08/04 06:01:02;;;;;;;11.60;5.10;;;;;;;;;;5052626;28;20323;-55
2022/08/04 06:03:30;;;;;;;7.43;4.40;;;;;;;;;;5052463;28;20189;-55
2022/08/04 06:05:57;;;;;;;6.00;4.03;;;;;;;;;;5052572;28;20204;-55
2022/08/04 06:08:23;;;;;;;10.13;4.43;;;;;;;;;;5052568;28;20197;-55
2022/08/04 06:10:50;;;;;;;9.23;4.27;;;;;;;;;;5052460;28;20196;-55
2022/08/04 06:13:18;;;;;;;9.37;4.47;;;;;;;;;;5052590;28;20254;-56
2022/08/04 06:15:47;;;;;;;5.77;4.13;;;;;;;;;;5052531;28;20204;-56
2022/08/04 06:18:13;;;;;;;9.20;3.63;;;;;;;;;;5052273;28;20217;-56
2022/08/04 06:20:42;;;;;;;7.43;3.97;;;;;;;;;;5052159;28;20311;-56
2022/08/04 06:23:10;;;;;;;6.60;3.80;;;;;;;;;;5052120;28;20196;-56
2022/08/04 06:25:38;;;;;;;12.57;4.50;;;;;;;;;;5052251;28;20223;-56
2022/08/04 06:28:05;;;;;;;9.40;4.30;;;;;;;;;;5052109;28;20192;-56
2022/08/04 06:30:32;;;;;;;8.67;4.07;;;;;;;;;;5052192;28;20563;-56
2022/08/04 06:33:01;;;;;;;7.43;4.07;;;;;;;;;;5052065;28;20198;-56
2022/08/04 06:35:28;;;;;;;9.40;3.67;;;;;;;;;;5052306;28;20219;-56
2022/08/04 06:37:56;;;;;;;9.57;3.87;;;;;;;;;;5051877;28;20664;-55
2022/08/04 06:40:23;;;;;;;8.70;3.63;;;;;;;;;;5051833;28;20549;-55
2022/08/04 06:42:49;;;;;;;8.07;3.87;;;;;;;;;;5051833;28;20281;-55
2022/08/04 06:45:15;;;;;;;5.63;3.83;;;;;;;;;;5051597;28;20246;-55
2022/08/04 06:47:43;;;;;;;12.53;4.07;;;;;;;;;;5051883;28;20202;-55
2022/08/04 06:50:09;;;;;;;9.57;3.90;;;;;;;;;;5051719;28;20195;-55
2022/08/04 06:52:36;;;;;;;10.90;3.70;;;;;;;;;;5051792;28;20210;-55
2022/08/04 06:55:04;;;;;;;8.30;3.60;;;;;;;;;;5051796;28;20206;-55
2022/08/04 06:57:32;;;;;;;9.20;3.50;;;;;;;;;;5051792;28;20207;-55
2022/08/04 06:59:59;;;;;;;7.60;3.63;;;;;;;;;;5051415;28;20223;-55
2022/08/04 07:02:26;;;;;;;7.37;2.60;;;;;;;;;;5051696;28;20196;-55
2022/08/04 07:04:52;;;;;;;6.20;2.67;;;;;;;;;;5051716;28;20286;-55
2022/08/04 07:07:18;;;;;;;11.30;3.20;;;;;;;;;;5051465;28;20199;-55
2022/08/04 07:09:45;;;;;;;9.77;2.70;;;;;;;;;;5051719;28;20192;-55
2022/08/04 07:12:13;;;;;;;5.50;2.80;;;;;;;;;;5051358;28;20203;-55
2022/08/04 07:14:39;;;;;;;7.27;2.67;;;;;;;;;;5050912;28;20208;-57
2022/08/04 07:17:07;;;;;;;8.33;2.53;;;;;;;;;;5051359;28;20192;-55
2022/08/04 07:19:33;;;;;;;5.60;2.60;;;;;;;;;;5051487;28;20279;-56
2022/08/04 07:22:00;;;;;;;6.00;3.00;;;;;;;;;;5051475;28;20200;-55
2022/08/04 07:24:29;;;;;;;5.87;2.70;;;;;;;;;;5051553;28;20204;-56
2022/08/04 07:26:55;;;;;;;4.20;2.60;;;;;;;;;;5051644;28;20192;-56
2022/08/04 07:29:23;;;;;;;4.77;2.80;;;;;;;;;;5051455;28;20211;-56
2022/08/04 07:31:49;;;;;;;5.13;2.70;;;;;;;;;;5051350;28;20254;-56
2022/08/04 07:34:16;;;;;;;4.87;2.70;;;;;;;;;;5051485;28;20223;-56
2022/08/04 07:36:42;;;;;;;5.40;2.93;;;;;;;;;;5051215;28;20664;-55
2022/08/04 07:39:08;;;;;;;5.40;2.67;;;;;;;;;;5051219;28;20263;-56
2022/08/04 07:41:34;;;;;;;4.20;2.47;;;;;;;;;;5051195;28;20656;-56
2022/08/04 07:44:00;;;;;;;8.87;2.63;;;;;;;;;;5051024;28;20246;-56
2022/08/04 07:46:28;;;;;;;7.57;3.23;;;;;;;;;;5051321;28;20205;-56
2022/08/04 07:48:54;;;;;;;7.77;2.90;;;;;;;;;;5051292;28;20297;-56
2022/08/04 07:51:20;;;;;;;5.83;2.70;;;;;;;;;;5051063;28;20194;-56
2022/08/04 07:53:46;;;;;;;10.13;2.90;;;;;;;;;;5051343;28;20210;-56
2022/08/04 07:56:14;;;;;;;4.70;3.03;;;;;;;;;;5051116;28;20673;-56
2022/08/04 07:58:40;;;;;;;5.57;2.83;;;;;;;;;;5051160;28;20249;-56
2022/08/04 08:01:06;;;;;;;5.87;2.73;;;;;;;;;;5050959;28;20638;-56
2022/08/04 08:03:34;;;;;;;5.70;2.80;;;;;;;;;;5051265;28;20241;-56
2022/08/04 08:06:00;;;;;;;7.13;2.40;;;;;;;;;;5051025;28;20235;-56
2022/08/04 08:08:26;;;;;;;2.77;2.10;;;;;;;;;;5051163;28;20207;-56
2022/08/04 08:10:52;;;;;;;4.73;2.47;;;;;;;;;;5051028;28;20195;-56
2022/08/04 08:13:18;;;;;;;4.60;2.27;;;;;;;;;;5051014;28;20200;-56
2022/08/04 08:15:45;;;;;;;5.23;2.50;;;;;;;;;;5051178;28;20228;-55
2022/08/04 08:18:11;;;;;;;5.77;2.60;;;;;;;;;;5050826;28;20793;-56
2022/08/04 08:20:39;;;;;;;4.13;2.40;;;;;;;;;;5050784;28;20239;-56
2022/08/04 08:23:07;;;;;;;3.20;2.17;;;;;;;;;;5050782;28;20201;-56
2022/08/04 08:25:33;;;;;;;4.93;2.40;;;;;;;;;;5051594;28;20196;-57
2022/08/04 08:28:01;;;;;;;3.93;2.33;;;;;;;;;;5054511;28;20257;-56
2022/08/04 08:30:27;;;;;;;3.00;2.47;;;;;;;;;;5054565;28;20196;-56
2022/08/04 08:32:53;;;;;;;6.33;2.60;;;;;;;;;;5054365;28;20242;-56
2022/08/04 08:35:21;;;;;;;5.53;2.50;;;;;;;;;;5054242;28;20205;-56
2022/08/04 08:37:53;;;;;;;6.80;3.07;;;;;;;;;;5054307;28;20217;-56
2022/08/04 08:40:24;;;;;;;3.80;2.60;;;;;;;;;;5054181;28;20239;-56
2022/08/04 08:43:00;;;;;;;3.27;2.30;;;;;;;;;;5054246;28;20201;-56
2022/08/04 08:45:41;;;;;;;3.90;2.53;;;;;;;;;;5053933;28;20316;-56
2022/08/04 08:48:15;;;;;;;3.53;2.50;;;;;;;;;;5054015;28;20198;-56
2022/08/04 08:50:52;;;;;;;4.43;2.40;;;;;;;;;;5054059;28;20289;-56
2022/08/04 08:53:25;;;;;;;3.33;2.67;;;;;;;;;;5054025;28;20245;-56
2022/08/04 08:56:01;;;;;;;5.57;2.43;;;;;;;;;;5053933;28;20203;-56
2022/08/04 08:58:32;;;;;;;6.47;2.57;;;;;;;;;;5053952;28;20671;-56
2022/08/04 09:01:02;;;;;;;6.80;2.73;;;;;;;;;;5053760;28;20234;-56
2022/08/04 09:03:44;;;;;;;5.53;2.30;;;;;;;;;;5054029;28;20199;-56
2022/08/04 09:06:28;;;;;;;6.23;2.60;;;;;;;;;;5053520;28;20184;-56
2022/08/04 09:09:15;;;;;;;2.20;1.90;;;;;;;;;;5053700;28;20200;-56
2022/08/04 09:11:43;;;;;;;5.50;2.27;;;;;;;;;;5053754;28;20244;-56
2022/08/04 09:14:16;;;;;;;7.90;2.43;;;;;;;;;;5053562;28;20197;-56
2022/08/04 09:16:46;;;;;;;2.90;2.10;;;;;;;;;;5053739;28;20319;-56
2022/08/04 09:19:16;;;;;;;5.97;2.30;;;;;;;;;;5053461;28;20568;-56
2022/08/04 09:21:47;;;;;;;6.63;2.27;;;;;;;;;;5053531;28;20249;-56
2022/08/04 09:24:18;;;;;;;4.67;2.30;;;;;;;;;;5053487;28;20202;-56
2022/08/04 09:26:48;;;;;;;2.93;2.20;;;;;;;;;;5053606;28;20211;-56
2022/08/04 09:29:17;;;;;;;4.43;2.33;;;;;;;;;;5053387;28;20261;-56
2022/08/04 09:31:46;;;;;;;3.97;2.00;;;;;;;;;;5053316;28;20639;-56
2022/08/04 09:34:16;;;;;;;7.83;2.33;;;;;;;;;;5053111;28;20205;-56
2022/08/04 09:36:45;;;;;;;2.70;2.00;;;;;;;;;;5053250;28;20196;-56
2022/08/04 09:39:21;;;;;;;2.90;1.90;;;;;;;;;;5052506;28;20219;-56
2022/08/04 09:41:51;;;;;;;3.13;2.20;;;;;;;;;;5052908;28;20226;-57
2022/08/04 09:44:21;;;;;;;3.20;2.00;;;;;;;;;;5052716;28;20297;-56
2022/08/04 09:46:50;;;;;;;5.63;2.03;;;;;;;;;;5053178;28;20256;-56
2022/08/04 09:49:19;;;;;;;3.13;2.10;;;;;;;;;;5052828;28;20231;-56
2022/08/04 09:51:55;;;;;;;2.20;2.00;;;;;;;;;;5053097;28;20216;-56
2022/08/04 09:54:26;;;;;;;2.40;1.90;;;;;;;;;;5053040;28;20201;-56
2022/08/04 09:56:55;;;;;;;4.50;2.20;;;;;;;;;;5052881;28;20235;-56
2022/08/04 09:59:23;;;;;;;1.97;1.87;;;;;;;;;;5052900;28;20237;-56
2022/08/04 10:01:52;;;;;;;2.23;1.73;;;;;;;;;;5052459;28;20232;-56
2022/08/04 10:04:19;;;;;;;5.20;2.17;;;;;;;;;;5052507;28;20595;-56
2022/08/04 10:06:54;;;;;;;6.47;2.10;;;;;;;;;;5052719;28;20233;-56
2022/08/04 10:09:47;;;;;;;3.43;2.10;;;;;;;;;;5052469;28;20297;-56
2022/08/04 10:12:26;;;;;;;3.50;2.00;;;;;;;;;;5005585;28;20203;-56
2022/08/04 10:14:57;;;;;;;5.30;1.87;;;;;;;;;;5052517;28;20207;-56
2022/08/04 10:17:26;;;;;;;6.27;1.90;;;;;;;;;;5052347;28;20192;-56
2022/08/04 10:19:55;;;;;;;3.63;2.03;;;;;;;;;;5052340;28;20227;-57
2022/08/04 10:22:24;;;;;;;2.27;1.90;;;;;;;;;;5052247;28;20585;-57
2022/08/04 10:24:55;;;;;;;4.57;1.80;;;;;;;;;;5052312;28;20188;-56
2022/08/04 10:27:25;;;;;;;2.72;1.80;;;;;;;;;;5051047;28;20421;-56
2022/08/04 10:29:54;;;;;;;2.28;1.90;;;;;;;;;;5051008;28;20404;-56
2022/08/04 10:32:22;;;;;;;3.60;1.90;;;;;;;;;;5050807;28;20447;-56
2022/08/04 10:34:59;;;;;;;4.55;1.90;;;;;;;;;;5050904;28;20477;-56
2022/08/04 10:37:28;;;;;;;5.90;1.80;;;;;;;;;;5050738;28;20492;-57
2022/08/04 10:42:48;;;;;;;3.15;1.90;;;;;;;;;;5051964;28;20203;-57
2022/08/04 10:45:17;;;;;;;3.15;2.00;;;;;;;;;;5051720;28;20243;-57
2022/08/04 10:47:44;;;;;;;3.33;1.90;;;;;;;;;;5050771;28;20483;-57
2022/08/04 10:50:12;;;;;;;3.10;1.90;;;;;;;;;;5049646;28;20485;-57
2022/08/04 10:52:42;;;;;;;2.92;1.80;;;;;;;;;;5050810;28;20405;-57
2022/08/04 10:55:11;;;;;;;4.35;2.10;;;;;;;;;;5050506;28;20416;-57
2022/08/04 10:57:40;;;;;;;3.35;2.00;;;;;;;;;;5050538;28;20960;-57
2022/08/04 11:00:09;;;;;;;2.35;1.85;;;;;;;;;;5050592;28;20430;-57
2022/08/04 11:02:42;;;;;;;5.22;2.00;;;;;;;;;;5050436;28;20409;-57
2022/08/04 11:05:18;;;;;;;3.95;1.90;;;;;;;;;;5050194;28;20775;-57
2022/08/04 11:07:45;;;;;;;4.67;1.90;;;;;;;;;;5050542;28;20394;-57
2022/08/04 11:10:12;;;;;;;4.15;1.90;;;;;;;;;;5051416;28;20554;-57
2022/08/04 11:12:40;;;;;;;6.55;1.83;;;;;;;;;;5051509;28;20196;-57
2022/08/04 11:15:10;;;;;;;4.70;2.00;;;;;;;;;;5051210;28;20241;-56
2022/08/04 11:17:40;;;;;;;4.80;1.77;;;;;;;;;;5051232;28;20666;-57
2022/08/04 11:20:11;;;;;;;2.47;1.70;;;;;;;;;;5051122;28;20224;-57
2022/08/04 11:22:41;;;;;;;3.13;1.92;;;;;;;;;;5051537;28;20212;-58
2022/08/04 11:25:09;;;;;;;7.30;1.83;;;;;;;;;;5051241;28;20204;-57
2022/08/04 11:27:39;;;;;;;6.97;1.90;;;;;;;;;;5051403;28;20609;-57
2022/08/04 11:30:06;;;;;;;3.58;2.00;;;;;;;;;;5051349;28;20203;-57
2022/08/04 11:32:35;;;;;;;2.45;2.13;;;;;;;;;;5051584;28;20196;-57
2022/08/04 11:35:02;;;;;;;4.50;2.00;;;;;;;;;;5051347;28;20199;-57
2022/08/04 11:37:33;;;;;;;2.97;1.65;;;;;;;;;;5051438;28;20200;-56
2022/08/04 11:40:03;;;;;;;3.13;1.90;;;;;;;;;;5051322;28;20247;-57
2022/08/04 11:42:30;;;;;;;5.25;1.83;;;;;;;;;;5051312;28;20199;-57
2022/08/04 11:44:59;;;;;;;3.42;1.70;;;;;;;;;;5050991;28;20242;-57
2022/08/04 11:47:30;;;;;;;6.40;1.80;;;;;;;;;;5051113;28;20196;-57
2022/08/04 11:50:02;;;;;;;1.88;1.45;;;;;;;;;;5051214;28;20434;-57
2022/08/04 11:52:29;;;;;;;5.05;1.80;;;;;;;;;;5051377;28;20283;-57
2022/08/04 11:54:56;;;;;;;3.25;1.60;;;;;;;;;;5051135;28;20200;-57
2022/08/04 11:57:22;;;;;;;3.00;1.70;;;;;;;;;;5051022;28;20253;-57
2022/08/04 11:59:49;;;;;;;5.82;1.85;;;;;;;;;;5051096;28;20192;-57
2022/08/04 12:02:25;;;;;;;2.20;1.50;;;;;;;;;;5054460;28;20204;-57
2022/08/04 12:04:55;;;;;;;1.80;1.60;;;;;;;;;;5054901;28;20279;-57
2022/08/04 12:07:29;;;;;;;3.15;1.73;;;;;;;;;;5054712;28;20664;-56
2022/08/04 12:09:58;;;;;;;2.15;1.67;;;;;;;;;;5054918;28;20215;-56
2022/08/04 12:12:28;;;;;;;3.88;1.52;;;;;;;;;;5054782;28;20282;-57
2022/08/04 12:14:57;;;;;;;1.88;1.38;;;;;;;;;;5054785;28;20203;-57
2022/08/04 12:17:27;;;;;;;4.45;1.80;;;;;;;;;;5054692;28;20204;-57
2022/08/04 12:19:55;;;;;;;1.60;1.50;;;;;;;;;;5054506;28;20500;-57
2022/08/04 12:22:24;;;;;;;8.20;1.90;;;;;;;;;;5054493;28;20282;-57
2022/08/04 12:24:52;;;;;;;2.85;1.60;;;;;;;;;;5054723;28;20277;-57
2022/08/04 12:27:21;;;;;;;2.28;1.83;;;;;;;;;;5054449;28;20213;-57
2022/08/04 12:29:47;;;;;;;3.40;1.75;;;;;;;;;;5054653;28;20210;-57
2022/08/04 12:32:18;;;;;;;2.90;1.77;;;;;;;;;;5054617;28;20191;-57
2022/08/04 12:34:47;;;;;;;3.45;1.70;;;;;;;;;;5054457;28;20647;-57
2022/08/04 12:37:17;;;;;;;4.55;1.63;;;;;;;;;;5054304;28;20254;-57
2022/08/04 12:39:46;;;;;;;2.27;1.50;;;;;;;;;;5054238;28;20622;-57
2022/08/04 12:42:15;;;;;;;2.60;1.77;;;;;;;;;;5054104;28;20241;-57
2022/08/04 12:44:42;;;;;;;2.80;1.53;;;;;;;;;;5053985;28;20270;-57
2022/08/04 12:47:09;;;;;;;3.83;1.90;;;;;;;;;;5054002;28;20239;-57
2022/08/04 12:49:36;;;;;;;1.60;1.50;;;;;;;;;;5054104;28;20203;-57
2022/08/04 12:52:05;;;;;;;3.10;1.70;;;;;;;;;;5054111;28;20206;-57
2022/08/04 12:54:32;;;;;;;1.80;1.60;;;;;;;;;;5054081;28;20679;-57
2022/08/04 12:57:01;;;;;;;3.03;1.80;;;;;;;;;;5054083;28;20396;-57
2022/08/04 12:59:27;;;;;;;5.03;1.80;;;;;;;;;;5053837;28;20201;-57
2022/08/04 13:01:53;;;;;;;1.67;1.57;;;;;;;;;;5053876;28;20313;-57
2022/08/04 13:04:21;;;;;;;2.70;1.70;;;;;;;;;;5053697;28;20980;-57
2022/08/04 13:06:52;;;;;;;2.80;1.70;;;;;;;;;;5053807;28;20210;-57
2022/08/04 13:09:19;;;;;;;1.63;1.47;;;;;;;;;;5053766;28;20663;-57
2022/08/04 13:11:48;;;;;;;1.97;1.70;;;;;;;;;;5053399;28;20695;-57
2022/08/04 13:14:17;;;;;;;2.10;1.60;;;;;;;;;;5053112;28;20220;-57
2022/08/04 13:16:43;;;;;;;2.27;1.50;;;;;;;;;;5053741;28;20294;-57
2022/08/04 13:19:09;;;;;;;5.27;1.80;;;;;;;;;;5053466;28;20232;-57
2022/08/04 13:21:41;;;;;;;2.07;1.40;;;;;;;;;;5053277;28;20244;-57
2022/08/04 13:24:10;;;;;;;4.07;1.77;;;;;;;;;;5053412;28;20208;-56
2022/08/04 13:26:36;;;;;;;3.83;1.50;;;;;;;;;;5053317;28;20658;-57
2022/08/04 13:29:03;;;;;;;1.90;1.53;;;;;;;;;;5053441;28;20293;-57
2022/08/04 13:31:32;;;;;;;3.53;1.80;;;;;;;;;;5053296;28;20222;-57
2022/08/04 13:34:04;;;;;;;7.40;1.70;;;;;;;;;;5053306;28;20547;-57
2022/08/04 13:36:30;;;;;;;6.47;1.47;;;;;;;;;;5053266;28;20210;-57
2022/08/04 13:38:58;;;;;;;1.73;1.40;;;;;;;;;;5053164;28;20207;-57
2022/08/04 13:41:24;;;;;;;2.93;1.60;;;;;;;;;;5052983;28;20668;-57
2022/08/04 13:43:53;;;;;;;2.50;1.50;;;;;;;;;;5052998;28;20246;-57
2022/08/04 13:46:21;;;;;;;4.17;1.70;;;;;;;;;;5053157;28;20294;-57
2022/08/04 13:48:48;;;;;;;2.33;1.70;;;;;;;;;;5053224;28;20252;-57
2022/08/04 13:51:17;;;;;;;9.90;1.93;;;;;;;;;;5052906;28;20293;-57
2022/08/04 13:53:43;;;;;;;2.83;1.77;;;;;;;;;;5053036;28;20199;-57
2022/08/04 13:56:10;;;;;;;7.83;1.90;;;;;;;;;;5052749;28;20581;-58
2022/08/04 13:58:39;;;;;;;3.27;1.60;;;;;;;;;;5052897;28;20199;-58
2022/08/04 14:01:07;;;;;;;2.00;1.60;;;;;;;;;;5052533;28;20592;-58
2022/08/04 14:03:35;;;;;;;4.20;1.77;;;;;;;;;;5052617;28;20202;-57
2022/08/04 14:06:13;;;;;;;3.30;1.77;;;;;;;;;;5052671;28;20202;-58
2022/08/04 14:08:45;;;;;;;2.27;1.60;;;;;;;;;;5052623;28;20617;-58
2022/08/04 14:11:11;;;;;;;3.00;1.60;;;;;;;;;;5052481;28;20190;-58
2022/08/04 14:13:38;;;;;;;3.07;1.57;;;;;;;;;;5052442;28;20229;-58
2022/08/04 14:16:12;;;;;;;2.57;1.60;;;;;;;;;;5052349;28;20200;-57
2022/08/04 14:18:38;;;;;;;3.57;1.40;;;;;;;;;;5052405;28;20293;-57
2022/08/04 14:21:05;;;;;;;3.47;1.63;;;;;;;;;;5052150;28;20316;-57
2022/08/04 14:23:44;;;;;;;3.93;1.70;;;;;;;;;;5052126;28;20652;-58
2022/08/04 14:26:14;;;;;;;2.90;1.40;;;;;;;;;;5051936;28;20703;-58
2022/08/04 14:28:40;;;;;;;3.80;1.23;;;;;;;;;;5051996;28;20207;-57
2022/08/04 14:31:09;;;;;;;3.40;1.40;;;;;;;;;;5051889;28;20576;-57
2022/08/04 14:33:39;;;;;;;2.63;1.53;;;;;;;;;;5052123;28;20192;-56
2022/08/04 14:36:06;;;;;;;2.83;1.47;;;;;;;;;;5052001;28;20595;-57
2022/08/04 14:38:47;;;;;;;2.17;1.53;;;;;;;;;;5052109;28;20457;-56
2022/08/04 14:41:13;;;;;;;4.53;1.70;;;;;;;;;;5051984;28;20219;-57
2022/08/04 14:43:46;;;;;;;12.33;2.60;;;;;;;;;;5051797;28;20258;-57
2022/08/04 14:46:12;;;;;;;14.93;2.77;;;;;;;;;;5051880;28;20205;-57
2022/08/04 14:48:38;;;;;;;19.40;2.93;;;;;;;;;;5052013;28;20278;-57
2022/08/04 14:51:05;;;;;;;10.30;2.55;;;;;;;;;;5050545;28;20447;-56
2022/08/04 14:53:31;;;;;;;19.35;2.30;;;;;;;;;;5050695;28;21010;-56
2022/08/04 14:55:59;;;;;;;10.65;2.10;;;;;;;;;;5050762;28;20826;-56
2022/08/04 14:58:26;;;;;;;10.95;2.40;;;;;;;;;;5050439;28;20891;-56
2022/08/04 15:00:53;;;;;;;7.85;2.00;;;;;;;;;;5050370;28;20406;-56
2022/08/04 15:03:20;;;;;;;6.45;1.70;;;;;;;;;;5050382;28;20477;-56
2022/08/04 15:05:46;;;;;;;6.15;1.52;;;;;;;;;;5050546;28;20401;-56